createdAt,value
2018-03-15T00:00:00.258Z,3.60
2018-03-15T00:02:30.053Z,3.70
2018-03-15T00:04:59.858Z,3.70
2018-03-15T00:07:29.625Z,3.60
2018-03-15T00:09:59.448Z,3.60
2018-03-15T00:12:28.975Z,3.60
2018-03-15T00:14:58.797Z,3.60
2018-03-15T00:17:29.335Z,3.60
2018-03-15T00:19:59.156Z,3.60
2018-03-15T00:22:28.440Z,3.60
2018-03-15T00:24:57.946Z,3.60
2018-03-15T00:27:27.720Z,3.60
2018-03-15T00:29:58.281Z,3.60
2018-03-15T00:32:28.161Z,3.60
2018-03-15T00:34:57.984Z,3.60
2018-03-15T00:37:28.648Z,3.60
2018-03-15T00:39:58.425Z,3.60
2018-03-15T00:42:28.234Z,3.70
2018-03-15T00:44:58.003Z,3.60
2018-03-15T00:47:27.812Z,3.60
2018-03-15T00:49:57.818Z,3.60
2018-03-15T00:52:27.654Z,3.50
2018-03-15T00:54:57.451Z,3.60
2018-03-15T00:57:27.269Z,3.60
2018-03-15T00:59:57.045Z,3.60
2018-03-15T01:02:27.079Z,3.60
2018-03-15T01:04:56.855Z,3.60
2018-03-15T01:07:26.648Z,3.60
2018-03-15T01:09:56.444Z,3.60
2018-03-15T01:12:26.216Z,3.60
2018-03-15T01:14:56.028Z,3.60
2018-03-15T01:17:25.790Z,3.60
2018-03-15T01:19:55.615Z,3.60
2018-03-15T01:22:25.385Z,3.60
2018-03-15T01:24:55.193Z,3.60
2018-03-15T01:27:25.007Z,3.60
2018-03-15T01:29:54.773Z,3.50
2018-03-15T01:32:24.577Z,3.50
2018-03-15T01:34:54.348Z,3.50
2018-03-15T01:37:24.202Z,3.50
2018-03-15T01:39:53.971Z,3.50
2018-03-15T01:42:23.775Z,3.50
2018-03-15T01:44:53.605Z,3.50
2018-03-15T01:47:23.420Z,3.60
2018-03-15T01:49:53.218Z,3.60
2018-03-15T01:52:22.759Z,3.50
2018-03-15T01:54:52.572Z,3.50
2018-03-15T01:57:22.417Z,3.50
2018-03-15T01:59:52.964Z,3.50
2018-03-15T02:02:22.807Z,3.50
2018-03-15T02:04:52.623Z,3.50
2018-03-15T02:07:22.407Z,3.50
2018-03-15T02:09:52.284Z,3.50
2018-03-15T02:12:22.188Z,3.50
2018-03-15T02:14:52.006Z,3.30
2018-03-15T02:17:21.774Z,3.40
2018-03-15T02:19:51.290Z,3.40
2018-03-15T02:22:21.187Z,3.40
2018-03-15T02:24:50.993Z,3.40
2018-03-15T02:27:20.765Z,3.50
2018-03-15T02:29:50.581Z,3.50
2018-03-15T02:32:20.389Z,3.50
2018-03-15T02:34:50.198Z,3.50
2018-03-15T02:37:20.036Z,3.50
2018-03-15T02:39:50.026Z,3.50
2018-03-15T02:42:19.973Z,3.40
2018-03-15T02:44:49.514Z,3.40
2018-03-15T02:47:19.333Z,3.40
2018-03-15T02:49:49.134Z,3.40
2018-03-15T02:52:18.973Z,3.40
2018-03-15T02:54:48.795Z,3.40
2018-03-15T02:57:18.607Z,3.40
2018-03-15T02:59:48.433Z,3.40
2018-03-15T03:02:18.214Z,3.40
2018-03-15T03:04:48.055Z,3.40
2018-03-15T03:07:17.849Z,3.40
2018-03-15T03:09:47.671Z,3.40
2018-03-15T03:12:17.459Z,3.40
2018-03-15T03:14:47.262Z,3.40
2018-03-15T03:17:17.201Z,3.40
2018-03-15T03:19:47.043Z,3.40
2018-03-15T03:22:16.842Z,3.40
2018-03-15T03:24:46.679Z,3.40
2018-03-15T03:27:17.259Z,3.40
2018-03-15T03:29:46.798Z,3.40
2018-03-15T03:32:16.575Z,3.40
2018-03-15T03:34:46.392Z,3.40
2018-03-15T03:37:16.216Z,3.40
2018-03-15T03:39:46.060Z,3.40
2018-03-15T03:42:15.546Z,3.40
2018-03-15T03:44:45.559Z,3.40
2018-03-15T03:47:15.538Z,3.40
2018-03-15T03:49:45.314Z,3.30
2018-03-15T03:52:15.163Z,3.30
2018-03-15T03:54:45.075Z,3.40
2018-03-15T03:57:14.853Z,3.40
2018-03-15T03:59:44.750Z,3.40
2018-03-15T04:02:14.549Z,3.40
2018-03-15T04:04:44.364Z,3.40
2018-03-15T04:07:14.139Z,3.50
2018-03-15T04:09:43.941Z,3.50
2018-03-15T04:12:14.504Z,3.60
2018-03-15T04:14:44.301Z,3.60
2018-03-15T04:17:14.115Z,3.50
2018-03-15T04:19:43.947Z,3.40
2018-03-15T04:22:13.517Z,3.40
2018-03-15T04:24:43.277Z,3.40
2018-03-15T04:27:13.069Z,3.40
2018-03-15T04:29:42.864Z,3.40
2018-03-15T04:32:12.692Z,3.30
2018-03-15T04:34:42.218Z,3.40
2018-03-15T04:37:12.009Z,3.40
2018-03-15T04:39:41.818Z,3.40
2018-03-15T04:42:11.632Z,3.30
2018-03-15T04:44:41.429Z,3.30
2018-03-15T04:47:11.200Z,3.30
2018-03-15T04:49:41.001Z,3.30
2018-03-15T04:52:10.810Z,3.40
2018-03-15T04:54:40.617Z,3.40
2018-03-15T04:57:10.401Z,3.40
2018-03-15T04:59:40.212Z,3.40
2018-03-15T05:02:10.020Z,3.40
2018-03-15T05:04:39.777Z,3.40
2018-03-15T05:07:09.960Z,3.40
2018-03-15T05:09:39.729Z,3.30
2018-03-15T05:12:10.316Z,3.40
2018-03-15T05:14:40.081Z,3.40
2018-03-15T05:17:10.670Z,3.50
2018-03-15T05:19:40.439Z,3.50
2018-03-15T05:22:10.261Z,3.40
2018-03-15T05:24:40.106Z,3.40
2018-03-15T05:27:09.877Z,3.40
2018-03-15T05:29:39.676Z,3.40
2018-03-15T05:32:10.216Z,3.40
2018-03-15T05:34:40.008Z,3.40
2018-03-15T05:37:09.810Z,3.40
2018-03-15T05:39:39.573Z,3.40
2018-03-15T05:42:09.370Z,3.30
2018-03-15T05:44:39.139Z,3.30
2018-03-15T05:47:08.986Z,3.30
2018-03-15T05:49:39.234Z,3.30
2018-03-15T05:52:09.030Z,3.30
2018-03-15T05:54:38.815Z,3.40
2018-03-15T05:57:08.642Z,3.40
2018-03-15T05:59:39.170Z,3.50
2018-03-15T06:02:09.806Z,3.40
2018-03-15T06:04:40.341Z,3.40
2018-03-15T06:07:10.146Z,3.30
2018-03-15T06:09:40.710Z,3.20
2018-03-15T06:12:10.488Z,3.20
2018-03-15T06:14:40.320Z,3.20
2018-03-15T06:17:09.907Z,3.20
2018-03-15T06:19:40.545Z,3.20
2018-03-15T06:22:10.559Z,3.20
2018-03-15T06:24:41.169Z,3.20
2018-03-15T06:27:11.008Z,3.20
2018-03-15T06:29:41.650Z,3.20
2018-03-15T06:32:11.537Z,3.20
2018-03-15T06:34:42.089Z,3.20
2018-03-15T06:37:11.929Z,3.20
2018-03-15T06:39:41.719Z,3.20
2018-03-15T06:42:11.568Z,3.10
2018-03-15T06:44:41.566Z,3.10
2018-03-15T06:47:11.467Z,3.10
2018-03-15T06:49:40.897Z,3.10
2018-03-15T06:52:10.402Z,3.00
2018-03-15T06:54:40.218Z,3.00
2018-03-15T06:57:10.053Z,3.00
2018-03-15T06:59:40.745Z,3.00
2018-03-15T07:02:10.531Z,3.00
2018-03-15T07:04:41.106Z,3.00
2018-03-15T07:07:10.874Z,3.00
2018-03-15T07:09:41.491Z,3.00
2018-03-15T07:12:11.261Z,3.00
2018-03-15T07:14:41.082Z,3.10
2018-03-15T07:17:10.882Z,3.10
2018-03-15T07:19:40.698Z,3.10
2018-03-15T07:22:10.494Z,3.00
2018-03-15T07:24:40.301Z,3.10
2018-03-15T07:27:10.079Z,3.10
2018-03-15T07:29:40.690Z,3.20
2018-03-15T07:32:10.488Z,3.20
2018-03-15T07:34:40.300Z,3.20
2018-03-15T07:37:10.089Z,3.20
2018-03-15T07:39:39.584Z,3.10
2018-03-15T07:42:09.528Z,3.10
2018-03-15T07:44:39.334Z,3.10
2018-03-15T07:47:09.143Z,3.10
2018-03-15T07:49:39.038Z,3.10
2018-03-15T07:52:08.817Z,3.20
2018-03-15T07:54:39.384Z,3.10
2018-03-15T07:57:09.189Z,3.00
2018-03-15T07:59:38.953Z,3.10
2018-03-15T08:02:08.761Z,3.00
2018-03-15T08:04:38.554Z,3.10
2018-03-15T08:07:08.355Z,3.10
2018-03-15T08:09:38.129Z,3.10
2018-03-15T08:12:08.704Z,3.10
2018-03-15T08:14:38.225Z,3.10
2018-03-15T08:17:08.042Z,3.10
2018-03-15T08:19:37.517Z,3.10
2018-03-15T08:22:07.286Z,3.10
2018-03-15T08:24:37.862Z,3.20
2018-03-15T08:27:07.630Z,3.20
2018-03-15T08:29:38.219Z,3.30
2018-03-15T08:32:07.994Z,3.30
2018-03-15T08:34:37.800Z,3.40
2018-03-15T08:37:07.630Z,3.40
2018-03-15T08:39:37.512Z,3.50
2018-03-15T08:42:07.453Z,3.50
2018-03-15T08:44:37.250Z,3.50
2018-03-15T08:47:07.051Z,3.50
2018-03-15T08:49:37.598Z,3.50
2018-03-15T08:52:07.423Z,3.50
2018-03-15T08:54:37.227Z,3.50
2018-03-15T08:57:07.044Z,3.50
2018-03-15T08:59:36.841Z,3.60
2018-03-15T09:02:07.418Z,3.70
2018-03-15T09:04:37.611Z,3.70
2018-03-15T09:07:07.238Z,3.80
2018-03-15T09:09:37.233Z,3.80
2018-03-15T09:12:07.025Z,3.90
2018-03-15T09:14:37.596Z,4.00
2018-03-15T09:17:07.373Z,4.00
2018-03-15T09:19:37.944Z,4.20
2018-03-15T09:22:07.750Z,4.10
2018-03-15T09:24:37.550Z,4.20
2018-03-15T09:27:07.331Z,4.20
2018-03-15T09:29:37.913Z,4.40
2018-03-15T09:32:07.862Z,4.40
2018-03-15T09:34:37.695Z,4.40
2018-03-15T09:37:08.441Z,4.30
2018-03-15T09:39:38.484Z,4.30
2018-03-15T09:42:08.312Z,4.40
2018-03-15T09:44:38.307Z,4.40
2018-03-15T09:47:08.129Z,4.60
2018-03-15T09:49:37.960Z,4.50
2018-03-15T09:52:07.989Z,4.50
2018-03-15T09:54:37.817Z,4.50
2018-03-15T09:57:08.467Z,4.70
2018-03-15T09:59:38.430Z,4.60
2018-03-15T10:02:08.243Z,4.70
2018-03-15T10:04:38.284Z,4.70
2018-03-15T10:07:08.105Z,4.50
2018-03-15T10:09:38.686Z,4.50
2018-03-15T10:12:08.477Z,4.50
2018-03-15T10:14:38.293Z,4.50
2018-03-15T10:17:08.100Z,4.50
2018-03-15T10:19:37.912Z,4.40
2018-03-15T10:22:07.955Z,4.40
2018-03-15T10:24:37.951Z,4.50
2018-03-15T10:27:07.521Z,4.60
2018-03-15T10:29:37.799Z,4.60
2018-03-15T10:32:07.817Z,4.60
2018-03-15T10:34:37.815Z,4.70
2018-03-15T10:37:07.839Z,4.70
2018-03-15T10:39:37.661Z,4.80
2018-03-15T10:42:07.656Z,4.90
2018-03-15T10:44:38.242Z,5.00
2018-03-15T10:47:08.039Z,5.00
2018-03-15T10:49:38.083Z,5.00
2018-03-15T10:52:07.564Z,5.10
2018-03-15T10:54:37.389Z,5.10
2018-03-15T10:57:07.198Z,5.20
2018-03-15T10:59:37.205Z,5.10
2018-03-15T11:02:06.709Z,5.10
2018-03-15T11:04:42.099Z,5.10
2018-03-15T11:07:18.422Z,5.10
2018-03-15T11:09:50.271Z,5.00
2018-03-15T11:12:20.057Z,5.10
2018-03-15T11:14:50.076Z,5.00
2018-03-15T11:17:19.905Z,5.00
2018-03-15T11:19:49.685Z,5.00
2018-03-15T11:22:20.328Z,4.90
2018-03-15T11:24:50.117Z,4.90
2018-03-15T11:27:20.708Z,5.10
2018-03-15T11:29:50.722Z,5.10
2018-03-15T11:32:20.298Z,5.00
2018-03-15T11:34:50.306Z,5.00
2018-03-15T11:37:20.093Z,4.90
2018-03-15T11:39:49.910Z,5.00
2018-03-15T11:42:19.749Z,5.00
2018-03-15T11:44:49.742Z,5.00
2018-03-15T11:47:19.565Z,5.10
2018-03-15T11:49:50.348Z,5.10
2018-03-15T11:52:19.901Z,5.10
2018-03-15T11:54:49.920Z,5.10
2018-03-15T11:57:20.477Z,5.20
2018-03-15T11:59:50.293Z,5.20
2018-03-15T12:02:20.087Z,5.30
2018-03-15T12:04:50.909Z,5.20
2018-03-15T12:07:21.477Z,5.20
2018-03-15T12:09:51.318Z,5.10
2018-03-15T12:12:21.342Z,5.00
2018-03-15T12:14:51.207Z,5.00
2018-03-15T12:17:21.277Z,5.00
2018-03-15T12:19:51.124Z,5.10
2018-03-15T12:22:21.094Z,5.10
2018-03-15T12:24:50.586Z,5.20
2018-03-15T12:27:20.438Z,5.30
2018-03-15T12:29:50.216Z,5.30
2018-03-15T12:32:20.020Z,5.40
2018-03-15T12:34:50.142Z,5.40
2018-03-15T12:37:20.186Z,5.40
2018-03-15T12:39:50.006Z,5.40
2018-03-15T12:42:19.823Z,5.40
2018-03-15T12:44:49.621Z,5.50
2018-03-15T12:47:19.426Z,5.70
2018-03-15T12:49:49.237Z,5.90
2018-03-15T12:52:19.010Z,6.10
2018-03-15T12:54:48.654Z,6.10
2018-03-15T12:57:18.456Z,6.20
2018-03-15T12:59:48.482Z,6.10
2018-03-15T13:02:18.314Z,6.00
2018-03-15T13:04:48.081Z,6.10
2018-03-15T13:07:17.622Z,6.30
2018-03-15T13:09:47.398Z,6.40
2018-03-15T13:12:17.966Z,6.40
2018-03-15T13:14:47.743Z,6.40
2018-03-15T13:17:18.315Z,6.20
2018-03-15T13:19:48.118Z,6.20
2018-03-15T13:22:17.932Z,6.10
2018-03-15T13:24:48.784Z,6.00
2018-03-15T13:27:18.699Z,5.90
2018-03-15T13:29:48.469Z,5.80
2018-03-15T13:32:18.305Z,5.80
2018-03-15T13:34:48.114Z,5.60
2018-03-15T13:37:17.942Z,5.40
2018-03-15T13:39:47.747Z,5.30
2018-03-15T13:42:17.510Z,5.30
2018-03-15T13:44:47.317Z,5.30
2018-03-15T13:47:17.089Z,5.30
2018-03-15T13:49:46.900Z,5.30
2018-03-15T13:52:16.581Z,5.30
2018-03-15T13:54:46.361Z,5.30
2018-03-15T13:57:16.162Z,5.40
2018-03-15T13:59:45.940Z,5.30
2018-03-15T14:02:15.961Z,5.40
2018-03-15T14:04:45.585Z,5.40
2018-03-15T14:07:15.385Z,5.50
2018-03-15T14:09:45.158Z,5.60
2018-03-15T14:12:15.732Z,5.80
2018-03-15T14:14:45.516Z,5.70
2018-03-15T14:17:15.316Z,5.80
2018-03-15T14:19:44.798Z,5.80
2018-03-15T14:22:14.626Z,5.80
2018-03-15T14:24:45.165Z,5.90
2018-03-15T14:27:15.751Z,5.90
2018-03-15T14:29:45.636Z,5.80
2018-03-15T14:32:16.415Z,5.70
2018-03-15T14:34:47.213Z,5.70
2018-03-15T14:37:17.033Z,5.70
2018-03-15T14:39:46.833Z,5.50
2018-03-15T14:42:16.521Z,5.50
2018-03-15T14:44:46.511Z,5.50
2018-03-15T14:47:16.326Z,5.50
2018-03-15T14:49:46.975Z,5.50
2018-03-15T14:52:17.534Z,5.50
2018-03-15T14:54:47.464Z,5.40
2018-03-15T14:57:17.237Z,5.50
2018-03-15T14:59:47.066Z,5.50
2018-03-15T15:02:17.132Z,5.70
2018-03-15T15:04:46.960Z,5.70
2018-03-15T15:07:16.731Z,5.70
2018-03-15T15:09:46.558Z,5.60
2018-03-15T15:12:16.373Z,5.60
2018-03-15T15:14:46.170Z,5.60
2018-03-15T15:17:15.936Z,5.60
2018-03-15T15:19:45.775Z,5.60
2018-03-15T15:22:15.547Z,5.60
2018-03-15T15:24:46.133Z,5.60
2018-03-15T15:27:15.962Z,5.60
2018-03-15T15:29:45.748Z,5.60
2018-03-15T15:32:15.654Z,5.50
2018-03-15T15:34:45.430Z,5.50
2018-03-15T15:37:15.997Z,5.50
2018-03-15T15:39:45.808Z,5.50
2018-03-15T15:42:15.595Z,5.50
2018-03-15T15:44:46.165Z,5.50
2018-03-15T15:47:16.124Z,5.50
2018-03-15T15:49:45.916Z,5.40
2018-03-15T15:52:15.715Z,5.40
2018-03-15T15:54:45.493Z,5.40
2018-03-15T15:57:15.297Z,5.20
2018-03-15T15:59:45.868Z,5.20
2018-03-15T16:02:15.505Z,5.20
2018-03-15T16:04:45.328Z,5.20
2018-03-15T16:07:15.865Z,5.20
2018-03-15T16:09:46.629Z,5.20
2018-03-15T16:12:16.429Z,5.20
2018-03-15T16:14:47.029Z,5.10
2018-03-15T16:17:16.835Z,5.20
2018-03-15T16:19:46.708Z,5.10
2018-03-15T16:22:16.543Z,5.10
2018-03-15T16:24:46.353Z,5.10
2018-03-15T16:27:16.171Z,5.10
2018-03-15T16:29:45.970Z,5.10
2018-03-15T16:32:15.787Z,5.10
2018-03-15T16:34:45.636Z,5.00
2018-03-15T16:37:15.514Z,5.00
2018-03-15T16:39:45.284Z,5.00
2018-03-15T16:42:15.860Z,5.00
2018-03-15T16:44:45.705Z,5.00
2018-03-15T16:47:16.283Z,4.90
2018-03-15T16:49:46.089Z,4.90
2018-03-15T16:52:15.897Z,4.90
2018-03-15T16:54:45.690Z,4.90
2018-03-15T16:57:16.269Z,4.90
2018-03-15T16:59:46.062Z,4.90
2018-03-15T17:02:15.973Z,4.90
2018-03-15T17:04:45.796Z,4.80
2018-03-15T17:07:15.620Z,4.80
2018-03-15T17:09:45.864Z,4.70
2018-03-15T17:12:15.665Z,4.70
2018-03-15T17:14:45.474Z,4.70
2018-03-15T17:17:15.315Z,4.70
2018-03-15T17:19:45.247Z,4.70
2018-03-15T17:22:15.200Z,4.60
2018-03-15T17:24:45.082Z,4.60
2018-03-15T17:27:15.945Z,4.60
2018-03-15T17:29:45.768Z,4.60
2018-03-15T17:32:15.563Z,4.50
2018-03-15T17:34:45.412Z,4.60
2018-03-15T17:37:15.023Z,4.50
2018-03-15T17:39:44.795Z,4.50
2018-03-15T17:42:14.639Z,4.50
2018-03-15T17:44:44.517Z,4.70
2018-03-15T17:47:14.291Z,4.60
2018-03-15T17:49:44.173Z,4.50
2018-03-15T17:52:14.116Z,4.50
2018-03-15T17:54:44.116Z,4.40
2018-03-15T17:57:13.911Z,4.50
2018-03-15T17:59:43.797Z,4.40
2018-03-15T18:02:13.703Z,4.40
2018-03-15T18:04:43.738Z,4.50
2018-03-15T18:07:13.386Z,4.50
2018-03-15T18:09:43.226Z,4.40
2018-03-15T18:12:14.696Z,4.20
2018-03-15T18:14:45.279Z,4.20
2018-03-15T18:17:15.090Z,4.20
2018-03-15T18:19:44.918Z,4.10
2018-03-15T18:22:14.942Z,4.10
2018-03-15T18:24:44.755Z,4.00
2018-03-15T18:27:15.354Z,4.10
2018-03-15T18:29:45.171Z,4.10
2018-03-15T18:32:15.000Z,4.10
2018-03-15T18:34:44.801Z,4.00
2018-03-15T18:37:14.645Z,4.00
2018-03-15T18:39:44.451Z,4.00
2018-03-15T18:42:14.287Z,4.00
2018-03-15T18:44:44.844Z,4.00
2018-03-15T18:47:14.667Z,4.00
2018-03-15T18:49:44.479Z,3.90
2018-03-15T18:52:14.296Z,3.90
2018-03-15T18:54:44.105Z,3.90
2018-03-15T18:57:13.913Z,3.90
2018-03-15T18:59:43.695Z,3.90
2018-03-15T19:02:14.274Z,3.80
2018-03-15T19:04:44.058Z,3.80
2018-03-15T19:07:13.858Z,3.80
2018-03-15T19:09:44.446Z,3.80
2018-03-15T19:12:14.245Z,3.80
2018-03-15T19:14:44.054Z,3.80
2018-03-15T19:17:15.375Z,3.80
2018-03-15T19:19:45.173Z,3.70
2018-03-15T19:22:15.754Z,3.70
2018-03-15T19:24:45.599Z,3.70
2018-03-15T19:27:15.411Z,3.70
2018-03-15T19:29:45.183Z,3.60
2018-03-15T19:32:15.076Z,3.70
2018-03-15T19:34:45.685Z,3.60
2018-03-15T19:37:16.074Z,3.60
2018-03-15T19:39:45.850Z,3.60
2018-03-15T19:42:15.643Z,3.50
2018-03-15T19:44:46.295Z,3.60
2018-03-15T19:47:16.782Z,3.50
2018-03-15T19:49:47.361Z,3.50
2018-03-15T19:52:17.147Z,3.50
2018-03-15T19:54:46.722Z,3.40
2018-03-15T19:57:16.528Z,3.40
2018-03-15T19:59:47.193Z,3.40
2018-03-15T20:02:17.779Z,3.40
2018-03-15T20:04:47.566Z,3.40
2018-03-15T20:07:17.437Z,3.40
2018-03-15T20:09:47.433Z,3.40
2018-03-15T20:12:17.061Z,3.30
2018-03-15T20:14:46.857Z,3.30
2018-03-15T20:17:16.707Z,3.30
2018-03-15T20:19:46.185Z,3.30
2018-03-15T20:22:15.846Z,3.30
2018-03-15T20:24:45.637Z,3.30
2018-03-15T20:27:15.251Z,3.20
2018-03-15T20:29:45.053Z,3.30
2018-03-15T20:32:15.412Z,3.20
2018-03-15T20:34:44.882Z,3.20
2018-03-15T20:37:15.417Z,3.20
2018-03-15T20:39:50.529Z,3.20
2018-03-15T20:42:20.305Z,3.20
2018-03-15T20:44:50.114Z,3.20
2018-03-15T20:47:25.452Z,3.20
2018-03-15T20:49:54.924Z,3.20
2018-03-15T20:52:25.522Z,3.20
2018-03-15T20:54:55.328Z,3.20
2018-03-15T20:57:25.097Z,3.20
2018-03-15T20:59:54.903Z,3.20
2018-03-15T21:02:25.078Z,3.20
2018-03-15T21:04:54.883Z,3.10
2018-03-15T21:07:24.706Z,3.10
2018-03-15T21:09:54.477Z,3.10
2018-03-15T21:12:24.288Z,3.10
2018-03-15T21:14:54.072Z,3.00
2018-03-15T21:17:24.629Z,3.10
2018-03-15T21:19:54.393Z,3.10
2018-03-15T21:22:24.195Z,3.00
2018-03-15T21:24:53.986Z,3.00
2018-03-15T21:27:23.813Z,3.00
2018-03-15T21:29:53.633Z,2.90
2018-03-15T21:32:23.393Z,2.90
2018-03-15T21:34:53.193Z,2.90
2018-03-15T21:37:22.968Z,2.80
2018-03-15T21:39:52.774Z,2.90
2018-03-15T21:42:23.467Z,2.80
2018-03-15T21:44:53.289Z,2.80
2018-03-15T21:47:23.100Z,2.80
2018-03-15T21:49:52.968Z,2.80
2018-03-15T21:52:23.538Z,2.80
2018-03-15T21:54:53.068Z,2.80
2018-03-15T21:57:23.478Z,2.80
2018-03-15T21:59:53.285Z,2.80
2018-03-15T22:02:23.855Z,2.80
2018-03-15T22:04:53.704Z,2.80
2018-03-15T22:07:23.668Z,2.70
2018-03-15T22:09:53.464Z,2.70
2018-03-15T22:12:23.272Z,2.70
2018-03-15T22:14:53.095Z,2.70
2018-03-15T22:17:22.884Z,2.70
2018-03-15T22:19:53.418Z,2.70
2018-03-15T22:22:23.224Z,2.70
2018-03-15T22:24:53.214Z,2.80
2018-03-15T22:27:23.008Z,2.70
2018-03-15T22:29:58.409Z,2.70
2018-03-15T22:32:28.176Z,2.70
2018-03-15T22:34:58.418Z,2.70
2018-03-15T22:37:29.711Z,2.70
2018-03-15T22:39:58.965Z,2.70
2018-03-15T22:42:28.582Z,2.70
2018-03-15T22:44:58.385Z,2.70
2018-03-15T22:47:27.946Z,2.70
2018-03-15T22:49:57.752Z,2.70
2018-03-15T22:52:27.531Z,2.70
2018-03-15T22:54:58.163Z,2.70
2018-03-15T22:57:27.962Z,2.60
2018-03-15T22:59:58.537Z,2.70
2018-03-15T23:02:28.339Z,2.60
2018-03-15T23:04:58.134Z,2.60
2018-03-15T23:07:27.952Z,2.60
2018-03-15T23:09:58.472Z,2.60
2018-03-15T23:12:29.038Z,2.60
2018-03-15T23:14:58.843Z,2.60
2018-03-15T23:17:28.643Z,2.60
2018-03-15T23:19:58.405Z,2.60
2018-03-15T23:22:28.237Z,2.60
2018-03-15T23:24:57.738Z,2.60
2018-03-15T23:27:27.549Z,2.60
2018-03-15T23:29:57.190Z,2.50
2018-03-15T23:32:26.959Z,2.50
2018-03-15T23:34:56.752Z,2.50
2018-03-15T23:37:26.602Z,2.50
2018-03-15T23:39:56.393Z,2.50
2018-03-15T23:42:26.170Z,2.50
2018-03-15T23:44:55.980Z,2.50
2018-03-15T23:47:25.744Z,2.50
2018-03-15T23:49:55.548Z,2.50
2018-03-15T23:52:25.313Z,2.50
2018-03-15T23:54:55.158Z,2.50
2018-03-15T23:57:24.946Z,2.40
2018-03-15T23:59:54.760Z,2.40
